sensor_id;sensor_type;location;lat;lon;timestamp;pressure;altitude;pressure_sealevel;temperature;humidity
79540;BME280;68991;52.122;5.406;2023-04-24T00:01:34;99951.56;;;12.31;68.54
79540;BME280;68991;52.122;5.406;2023-04-24T00:04:03;99961.47;;;12.30;68.24
79540;BME280;68991;52.122;5.406;2023-04-24T00:06:30;99959.75;;;12.29;68.20
79540;BME280;68991;52.122;5.406;2023-04-24T00:09:00;99967.09;;;12.27;68.55
79540;BME280;68991;52.122;5.406;2023-04-24T00:11:27;99968.19;;;12.25;67.84
79540;BME280;68991;52.122;5.406;2023-04-24T00:13:54;99965.72;;;12.22;68.41
79540;BME280;68991;52.122;5.406;2023-04-24T00:16:21;99975.63;;;12.21;68.62
79540;BME280;68991;52.122;5.406;2023-04-24T00:18:48;99981.22;;;12.18;68.55
79540;BME280;68991;52.122;5.406;2023-04-24T00:21:15;99976.81;;;12.17;68.58
79540;BME280;68991;52.122;5.406;2023-04-24T00:23:43;99984.97;;;12.16;68.25
79540;BME280;68991;52.122;5.406;2023-04-24T00:26:10;99981.53;;;12.14;68.40
79540;BME280;68991;52.122;5.406;2023-04-24T00:28:37;99987.03;;;12.12;68.42
79540;BME280;68991;52.122;5.406;2023-04-24T00:31:04;99982.72;;;12.10;68.51
79540;BME280;68991;52.122;5.406;2023-04-24T00:33:30;99987.38;;;12.08;68.21
79540;BME280;68991;52.122;5.406;2023-04-24T00:35:57;99983.91;;;12.06;68.61
79540;BME280;68991;52.122;5.406;2023-04-24T00:38:24;99979.47;;;12.05;68.27
79540;BME280;68991;52.122;5.406;2023-04-24T00:40:50;99990.47;;;12.02;68.05
79540;BME280;68991;52.122;5.406;2023-04-24T00:43:17;99984.34;;;12.00;68.78
79540;BME280;68991;52.122;5.406;2023-04-24T00:45:44;99986.25;;;11.97;68.40
79540;BME280;68991;52.122;5.406;2023-04-24T00:48:11;99990.91;;;11.95;68.27
79540;BME280;68991;52.122;5.406;2023-04-24T00:50:39;99989.16;;;11.94;68.84
79540;BME280;68991;52.122;5.406;2023-04-24T00:53:05;99992.09;;;11.91;68.47
79540;BME280;68991;52.122;5.406;2023-04-24T00:55:32;99992.22;;;11.90;68.25
79540;BME280;68991;52.122;5.406;2023-04-24T00:57:59;100005.84;;;11.87;68.81
79540;BME280;68991;52.122;5.406;2023-04-24T01:00:26;100006.94;;;11.84;68.86
79540;BME280;68991;52.122;5.406;2023-04-24T01:02:53;100005.19;;;11.83;68.36
79540;BME280;68991;52.122;5.406;2023-04-24T01:05:20;100003.50;;;11.82;68.79
79540;BME280;68991;52.122;5.406;2023-04-24T01:07:47;100005.41;;;11.80;68.65
79540;BME280;68991;52.122;5.406;2023-04-24T01:10:16;100007.38;;;11.78;68.31
79540;BME280;68991;52.122;5.406;2023-04-24T06:29:18;100243.31;;;10.80;69.71
79540;BME280;68991;52.122;5.406;2023-04-24T06:35:41;100267.56;;;10.79;70.88
79540;BME280;68991;52.122;5.406;2023-04-24T06:38:14;100277.47;;;10.78;70.82
79540;BME280;68991;52.122;5.406;2023-04-24T06:40:43;100278.31;;;10.79;70.37
79540;BME280;68991;52.122;5.406;2023-04-24T06:43:18;100288.22;;;10.78;70.35
79540;BME280;68991;52.122;5.406;2023-04-24T06:46:15;100291.78;;;10.79;70.29
79540;BME280;68991;52.122;5.406;2023-04-24T06:48:58;100306.09;;;10.79;70.81
79540;BME280;68991;52.122;5.406;2023-04-24T06:51:37;100312.41;;;10.78;70.97
79540;BME280;68991;52.122;5.406;2023-04-24T06:54:15;100314.22;;;10.78;70.41
79540;BME280;68991;52.122;5.406;2023-04-24T06:56:44;100324.09;;;10.77;70.24
79540;BME280;68991;52.122;5.406;2023-04-24T06:59:22;100325.94;;;10.77;70.82
79540;BME280;68991;52.122;5.406;2023-04-24T07:01:53;100335.03;;;10.74;70.29
79540;BME280;68991;52.122;5.406;2023-04-24T07:04:46;100344.84;;;10.75;70.60
79540;BME280;68991;52.122;5.406;2023-04-24T07:07:47;100351.16;;;10.74;70.18
79540;BME280;68991;52.122;5.406;2023-04-24T07:10:25;100346.78;;;10.73;70.60
79540;BME280;68991;52.122;5.406;2023-04-24T07:12:56;100362.91;;;10.73;70.60
79540;BME280;68991;52.122;5.406;2023-04-24T07:15:33;100368.28;;;10.73;70.10
79540;BME280;68991;52.122;5.406;2023-04-24T07:18:16;100376.34;;;10.73;70.49
79540;BME280;68991;52.122;5.406;2023-04-24T07:23:37;100391.66;;;10.71;70.18
79540;BME280;68991;52.122;5.406;2023-04-24T07:26:22;100401.66;;;10.69;70.05
79540;BME280;68991;52.122;5.406;2023-04-24T07:29:20;100407.03;;;10.69;70.76
79540;BME280;68991;52.122;5.406;2023-04-24T07:32:15;100409.78;;;10.68;70.51
79540;BME280;68991;52.122;5.406;2023-04-24T07:35:01;100414.41;;;10.66;70.33
79540;BME280;68991;52.122;5.406;2023-04-24T07:37:37;100423.34;;;10.66;70.38
79540;BME280;68991;52.122;5.406;2023-04-24T07:40:17;100426.09;;;10.65;70.32
79540;BME280;68991;52.122;5.406;2023-04-24T07:42:49;100435.13;;;10.64;70.46
79540;BME280;68991;52.122;5.406;2023-04-24T07:45:40;100444.03;;;10.64;70.76
79540;BME280;68991;52.122;5.406;2023-04-24T07:48:11;100445.00;;;10.63;70.28
79540;BME280;68991;52.122;5.406;2023-04-24T07:50:54;100453.16;;;10.62;70.42
79540;BME280;68991;52.122;5.406;2023-04-24T07:53:46;100461.28;;;10.60;70.83
79540;BME280;68991;52.122;5.406;2023-04-24T07:56:16;100455.91;;;10.60;70.76
79540;BME280;68991;52.122;5.406;2023-04-24T07:58:45;100464.84;;;10.61;70.24
79540;BME280;68991;52.122;5.406;2023-04-24T08:01:50;100468.59;;;10.58;70.63
79540;BME280;68991;52.122;5.406;2023-04-24T08:04:28;100472.22;;;10.57;70.41
79540;BME280;68991;52.122;5.406;2023-04-24T08:07:05;100484.78;;;10.57;70.63
79540;BME280;68991;52.122;5.406;2023-04-24T08:13:41;100495.63;;;10.55;70.06
79540;BME280;68991;52.122;5.406;2023-04-24T08:16:32;100506.38;;;10.55;70.82
79540;BME280;68991;52.122;5.406;2023-04-24T08:19:06;100504.63;;;10.54;70.41
79540;BME280;68991;52.122;5.406;2023-04-24T08:21:54;100526.13;;;10.54;70.85
79540;BME280;68991;52.122;5.406;2023-04-24T08:24:25;100527.00;;;10.55;70.90
79540;BME280;68991;52.122;5.406;2023-04-24T08:27:18;100539.50;;;10.56;70.91
79540;BME280;68991;52.122;5.406;2023-04-24T08:29:53;100550.25;;;10.56;70.81
79540;BME280;68991;52.122;5.406;2023-04-24T08:32:26;100555.69;;;10.54;70.92
79540;BME280;68991;52.122;5.406;2023-04-24T08:35:07;100559.25;;;10.55;70.71
79540;BME280;68991;52.122;5.406;2023-04-24T08:37:40;100557.50;;;10.54;70.83
79540;BME280;68991;52.122;5.406;2023-04-24T08:40:14;100573.63;;;10.54;70.64
79540;BME280;68991;52.122;5.406;2023-04-24T08:42:53;100574.69;;;10.51;70.63
79540;BME280;68991;52.122;5.406;2023-04-24T08:45:20;100580.06;;;10.51;70.75
79540;BME280;68991;52.122;5.406;2023-04-24T08:47:49;100581.00;;;10.50;70.85
79540;BME280;68991;52.122;5.406;2023-04-24T08:50:21;100586.38;;;10.50;71.04
79540;BME280;68991;52.122;5.406;2023-04-24T08:52:56;100586.38;;;10.50;70.54
79540;BME280;68991;52.122;5.406;2023-04-24T08:55:49;100592.63;;;10.51;70.43
79540;BME280;68991;52.122;5.406;2023-04-24T08:58:23;100598.00;;;10.51;70.43
79540;BME280;68991;52.122;5.406;2023-04-24T09:01:00;100598.88;;;10.51;70.77
79540;BME280;68991;52.122;5.406;2023-04-24T09:03:37;100605.19;;;10.50;70.57
79540;BME280;68991;52.122;5.406;2023-04-24T09:06:06;100615.94;;;10.50;70.63
79540;BME280;68991;52.122;5.406;2023-04-24T09:08:42;100618.63;;;10.50;70.60
79540;BME280;68991;52.122;5.406;2023-04-24T09:11:16;100623.06;;;10.51;70.83
79540;BME280;68991;52.122;5.406;2023-04-24T09:13:45;100627.47;;;10.52;70.62
79540;BME280;68991;52.122;5.406;2023-04-24T09:16:21;100617.69;;;10.51;70.74
79540;BME280;68991;52.122;5.406;2023-04-24T09:19:06;100630.16;;;10.52;70.71
79540;BME280;68991;52.122;5.406;2023-04-24T09:21:35;100637.25;;;10.53;70.88
79540;BME280;68991;52.122;5.406;2023-04-24T09:24:18;100641.75;;;10.53;70.64
79540;BME280;68991;52.122;5.406;2023-04-24T09:26:59;100642.63;;;10.53;70.68
79540;BME280;68991;52.122;5.406;2023-04-24T09:29:40;100647.06;;;10.54;70.70
79540;BME280;68991;52.122;5.406;2023-04-24T09:32:40;100659.56;;;10.55;70.76
79540;BME280;68991;52.122;5.406;2023-04-24T09:36:03;100652.38;;;10.56;70.89
79540;BME280;68991;52.122;5.406;2023-04-24T09:38:58;100659.41;;;10.58;70.81
79540;BME280;68991;52.122;5.406;2023-04-24T09:41:44;100661.16;;;10.59;70.85
79540;BME280;68991;52.122;5.406;2023-04-24T09:44:41;100672.66;;;10.61;70.80
79540;BME280;68991;52.122;5.406;2023-04-24T09:47:50;100671.63;;;10.64;70.98
79540;BME280;68991;52.122;5.406;2023-04-24T09:50:55;100683.09;;;10.67;71.13
79540;BME280;68991;52.122;5.406;2023-04-24T09:53:44;100687.44;;;10.70;71.20
79540;BME280;68991;52.122;5.406;2023-04-24T09:56:18;100694.47;;;10.72;71.01
79540;BME280;68991;52.122;5.406;2023-04-24T09:58:52;100689.88;;;10.74;71.49
79540;BME280;68991;52.122;5.406;2023-04-24T10:01:30;100693.38;;;10.76;70.87
79540;BME280;68991;52.122;5.406;2023-04-24T10:04:22;100697.72;;;10.79;71.01
79540;BME280;68991;52.122;5.406;2023-04-24T10:07:03;100693.09;;;10.81;70.71
79540;BME280;68991;52.122;5.406;2023-04-24T10:09:56;100696.59;;;10.83;71.08
79540;BME280;68991;52.122;5.406;2023-04-24T10:13:04;100699.19;;;10.84;71.01
79540;BME280;68991;52.122;5.406;2023-04-24T10:15:52;100710.75;;;10.86;71.14
79540;BME280;68991;52.122;5.406;2023-04-24T10:18:39;100714.31;;;10.87;71.04
79540;BME280;68991;52.122;5.406;2023-04-24T10:21:15;100715.97;;;10.89;71.20
79540;BME280;68991;52.122;5.406;2023-04-24T10:24:05;100726.66;;;10.91;71.84
79540;BME280;68991;52.122;5.406;2023-04-24T10:27:04;100725.59;;;10.93;71.71
79540;BME280;68991;52.122;5.406;2023-04-24T10:29:38;100736.34;;;10.93;72.11
79540;BME280;68991;52.122;5.406;2023-04-24T10:32:12;100739.81;;;10.95;71.60
79540;BME280;68991;52.122;5.406;2023-04-24T10:34:48;100737.06;;;10.97;71.67
79540;BME280;68991;52.122;5.406;2023-04-24T10:37:27;100732.56;;;10.97;71.57
79540;BME280;68991;52.122;5.406;2023-04-24T10:39:56;100738.72;;;10.99;71.06
79540;BME280;68991;52.122;5.406;2023-04-24T10:42:27;100740.47;;;11.01;71.18
79540;BME280;68991;52.122;5.406;2023-04-24T10:45:11;100736.72;;;11.03;71.07
79540;BME280;68991;52.122;5.406;2023-04-24T10:48:01;100748.34;;;11.04;71.91
79540;BME280;68991;52.122;5.406;2023-04-24T10:50:52;100750.09;;;11.05;71.44
79540;BME280;68991;52.122;5.406;2023-04-24T10:53:22;100755.31;;;11.08;71.71
79540;BME280;68991;52.122;5.406;2023-04-24T10:56:16;100751.75;;;11.07;71.66
79540;BME280;68991;52.122;5.406;2023-04-24T10:58:53;100754.28;;;11.10;71.76
79540;BME280;68991;52.122;5.406;2023-04-24T11:01:37;100753.34;;;11.11;71.37
79540;BME280;68991;52.122;5.406;2023-04-24T11:04:12;100755.91;;;11.13;71.65
79540;BME280;68991;52.122;5.406;2023-04-24T11:06:42;100763.84;;;11.16;71.92
79540;BME280;68991;52.122;5.406;2023-04-24T11:09:32;100757.50;;;11.17;71.80
79540;BME280;68991;52.122;5.406;2023-04-24T11:12:15;100764.56;;;11.19;71.69
79540;BME280;68991;52.122;5.406;2023-04-24T11:17:38;100776.97;;;11.22;71.75
79540;BME280;68991;52.122;5.406;2023-04-24T11:20:28;100795.81;;;11.22;71.48
79540;BME280;68991;52.122;5.406;2023-04-24T11:27:45;100808.31;;;11.23;71.68
79540;BME280;68991;52.122;5.406;2023-04-24T11:30:47;100802.94;;;11.23;71.52
79540;BME280;68991;52.122;5.406;2023-04-24T11:33:45;100811.00;;;11.23;71.62
79540;BME280;68991;52.122;5.406;2023-04-24T11:36:30;100809.25;;;11.22;71.50
79540;BME280;68991;52.122;5.406;2023-04-24T11:39:13;100802.94;;;11.23;71.79
79540;BME280;68991;52.122;5.406;2023-04-24T11:42:10;100801.97;;;11.24;72.18
79540;BME280;68991;52.122;5.406;2023-04-24T11:44:39;100802.84;;;11.24;71.30
79540;BME280;68991;52.122;5.406;2023-04-24T11:47:15;100815.41;;;11.24;72.19
79540;BME280;68991;52.122;5.406;2023-04-24T11:50:00;100814.47;;;11.25;72.25
79540;BME280;68991;52.122;5.406;2023-04-24T11:52:45;100813.53;;;11.26;72.02
79540;BME280;68991;52.122;5.406;2023-04-24T11:58:34;100826.88;;;11.27;71.61
79540;BME280;68991;52.122;5.406;2023-04-24T12:01:42;100829.41;;;11.30;71.83
79540;BME280;68991;52.122;5.406;2023-04-24T12:04:42;100834.78;;;11.30;71.44
79540;BME280;68991;52.122;5.406;2023-04-24T12:07:30;100836.53;;;11.31;71.94
79540;BME280;68991;52.122;5.406;2023-04-24T12:10:30;100841.84;;;11.33;71.65
79540;BME280;68991;52.122;5.406;2023-04-24T12:13:02;100845.41;;;11.33;71.62
79540;BME280;68991;52.122;5.406;2023-04-24T12:15:42;100851.56;;;11.35;71.28
79540;BME280;68991;52.122;5.406;2023-04-24T12:18:34;100847.94;;;11.36;71.48
79540;BME280;68991;52.122;5.406;2023-04-24T12:21:22;100867.56;;;11.38;71.24
79540;BME280;68991;52.122;5.406;2023-04-24T12:23:54;100863.03;;;11.39;71.33
79540;BME280;68991;52.122;5.406;2023-04-24T12:26:34;100863.81;;;11.41;71.45
79540;BME280;68991;52.122;5.406;2023-04-24T12:29:26;100871.81;;;11.42;71.63
79540;BME280;68991;52.122;5.406;2023-04-24T12:31:59;100861.94;;;11.43;71.32
79540;BME280;68991;52.122;5.406;2023-04-24T12:34:55;100868.97;;;11.45;71.07
79540;BME280;68991;52.122;5.406;2023-04-24T12:37:33;100862.63;;;11.46;71.01
79540;BME280;68991;52.122;5.406;2023-04-24T12:40:25;100870.63;;;11.48;71.07
79540;BME280;68991;52.122;5.406;2023-04-24T12:43:18;100880.38;;;11.51;71.30
79540;BME280;68991;52.122;5.406;2023-04-24T12:45:57;100883.94;;;11.51;70.80
79540;BME280;68991;52.122;5.406;2023-04-24T12:48:30;100883.84;;;11.53;71.54
79540;BME280;68991;52.122;5.406;2023-04-24T12:51:16;100888.28;;;11.54;70.77
79540;BME280;68991;52.122;5.406;2023-04-24T12:53:51;100897.22;;;11.54;70.85
79540;BME280;68991;52.122;5.406;2023-04-24T12:56:21;100886.47;;;11.54;70.83
79540;BME280;68991;52.122;5.406;2023-04-24T12:59:03;100907.03;;;11.55;70.56
79540;BME280;68991;52.122;5.406;2023-04-24T13:01:35;100909.72;;;11.55;70.70
79540;BME280;68991;52.122;5.406;2023-04-24T13:04:01;100914.31;;;11.53;70.41
79540;BME280;68991;52.122;5.406;2023-04-24T13:06:28;100915.19;;;11.54;70.64
79540;BME280;68991;52.122;5.406;2023-04-24T13:09:14;100915.25;;;11.52;70.66
79540;BME280;68991;52.122;5.406;2023-04-24T13:11:44;100927.78;;;11.53;70.53
79540;BME280;68991;52.122;5.406;2023-04-24T13:14:15;100924.16;;;11.54;70.55
79540;BME280;68991;52.122;5.406;2023-04-24T13:17:05;100926.03;;;11.52;70.63
79540;BME280;68991;52.122;5.406;2023-04-24T13:19:43;100914.38;;;11.52;70.87
79540;BME280;68991;52.122;5.406;2023-04-24T13:31:31;100916.31;;;11.49;70.38
79540;BME280;68991;52.122;5.406;2023-04-24T14:02:46;100926.75;;;11.56;69.26
79540;BME280;68991;52.122;5.406;2023-04-24T14:38:35;100950.91;;;11.74;68.54
79540;BME280;68991;52.122;5.406;2023-04-24T14:44:58;100950.91;;;11.74;68.27
79540;BME280;68991;52.122;5.406;2023-04-24T14:47:32;100949.97;;;11.75;68.07
79540;BME280;68991;52.122;5.406;2023-04-24T14:50:12;100951.69;;;11.76;67.11
79540;BME280;68991;52.122;5.406;2023-04-24T14:53:03;100951.63;;;11.78;67.61
79540;BME280;68991;52.122;5.406;2023-04-24T14:59:14;100953.81;;;11.87;67.56
79540;BME280;68991;52.122;5.406;2023-04-24T15:01:42;100957.22;;;11.90;67.91
79540;BME280;68991;52.122;5.406;2023-04-24T15:04:18;100949.75;;;11.95;67.88
79540;BME280;68991;52.122;5.406;2023-04-24T15:07:03;100962.13;;;12.00;67.45
79540;BME280;68991;52.122;5.406;2023-04-24T15:09:56;100973.66;;;12.02;67.02
79540;BME280;68991;52.122;5.406;2023-04-24T15:12:23;100985.25;;;12.04;66.67
79540;BME280;68991;52.122;5.406;2023-04-24T15:14:50;100995.22;;;12.02;66.78
79540;BME280;68991;52.122;5.406;2023-04-24T15:17:22;101001.59;;;12.01;67.19
79540;BME280;68991;52.122;5.406;2023-04-24T15:23:15;101005.13;;;12.01;67.34
79540;BME280;68991;52.122;5.406;2023-04-24T15:25:58;101000.72;;;12.00;67.88
79540;BME280;68991;52.122;5.406;2023-04-24T15:28:49;101009.66;;;12.01;68.25
79540;BME280;68991;52.122;5.406;2023-04-24T15:31:25;100999.72;;;12.01;67.71
79540;BME280;68991;52.122;5.406;2023-04-24T15:33:52;101006.09;;;12.00;68.16
79540;BME280;68991;52.122;5.406;2023-04-24T15:36:21;100994.34;;;12.01;68.51
79540;BME280;68991;52.122;5.406;2023-04-24T15:39:11;101000.78;;;11.98;68.00
79540;BME280;68991;52.122;5.406;2023-04-24T15:41:43;101000.78;;;11.98;67.36
79540;BME280;68991;52.122;5.406;2023-04-24T15:44:31;100998.72;;;12.04;67.83
79540;BME280;68991;52.122;5.406;2023-04-24T15:47:00;101000.44;;;12.05;67.80
79540;BME280;68991;52.122;5.406;2023-04-24T15:49:31;101001.25;;;12.07;67.79
79540;BME280;68991;52.122;5.406;2023-04-24T15:52:05;101011.94;;;12.08;68.07
79540;BME280;68991;52.122;5.406;2023-04-24T15:54:33;100992.13;;;12.09;67.86
